Ashburn Park, Illinois
Current Conditions -  °F | °C
As of 5:53 AM on Tuesday 27 Jan 2015 (Local Time) from KMDW Reporting Station
Haze Haze  
Wind Chill: -6°   Ceiling: 800
Heat Index: -2°   Visibility: 3mi
Dew Point: -4°   Wind: 7mph
Humidity: 85%   Direction: 60°ENE
Pressure: 30.03"   Gusts: NA
Location:  41.7473°N, 87.7132°W
Report Text: KMDW 271153Z 06006KT 3SM BR OVC008 M02/M04 A3003 RMK AO2 SLP182 4/001 60000 70004 T10171039 11017 21022 53024
Loading
Personal Weather Stations






























Interactive Weather Map New forecast layout! Learn more

10-Day Weather Forecast

Advertisements
Track Severe Weather on mobile